Time;durP1;ratioP1;P1;durP2;ratioP2;P2;SDS_P1;SDS_P2;PMS_P1;PMS_P2;Temp;Humidity;BMP_temperature;BMP_pressure;BME280_temperature;BME280_humidity;BME280_pressure;Samples;Min_cycle;Max_cycle;Signal;HPM_P1;HPM_P2
2022/07/22 00:00:08;;;;;;;5.10;3.30;;;;;;;30.97;42.25;96980.63;5073205;28;20021;-26
2022/07/22 00:02:34;;;;;;;3.17;2.97;;;;;;;31.05;41.46;96987.03;5073242;28;20428;-26
2022/07/22 00:05:00;;;;;;;4.65;3.45;;;;;;;31.02;42.01;96981.78;5073072;28;20028;-26
2022/07/22 00:07:25;;;;;;;4.38;3.97;;;;;;;31.07;41.35;96983.66;5072913;28;20051;-26
2022/07/22 00:09:51;;;;;;;3.22;2.92;;;;;;;31.01;41.88;96988.69;5073229;28;20378;-26
2022/07/22 00:12:16;;;;;;;5.80;3.88;;;;;;;31.08;41.45;96973.97;5073305;28;20077;-26
2022/07/22 00:14:43;;;;;;;4.75;3.50;;;;;;;31.11;41.72;96983.34;5072089;28;20390;-26
2022/07/22 00:17:08;;;;;;;3.83;3.50;;;;;;;31.10;41.24;96984.66;5071030;28;20032;-26
2022/07/22 00:19:35;;;;;;;4.55;3.53;;;;;;;31.02;41.92;96984.59;5072129;28;20067;-26
2022/07/22 00:22:00;;;;;;;4.03;3.60;;;;;;;31.05;41.23;96981.41;5073095;28;20029;-26
2022/07/22 00:24:26;;;;;;;3.60;3.30;;;;;;;31.04;41.83;96988.31;5072969;28;20077;-26
2022/07/22 00:26:51;;;;;;;4.15;3.78;;;;;;;31.02;41.34;96979.75;5072953;28;20020;-26
2022/07/22 00:29:17;;;;;;;3.95;3.55;;;;;;;30.96;41.56;96978.38;5073227;28;20031;-26
2022/07/22 00:31:42;;;;;;;4.07;3.60;;;;;;;31.02;41.75;96982.53;5073142;28;20399;-26
2022/07/22 00:34:08;;;;;;;3.75;3.45;;;;;;;30.94;41.46;96976.13;5072876;28;20028;-26
2022/07/22 00:36:34;;;;;;;3.85;3.47;;;;;;;30.92;41.47;96981.53;5072823;28;20070;-26
2022/07/22 00:39:00;;;;;;;3.67;3.38;;;;;;;30.99;41.30;96983.63;5073026;28;20516;-26
2022/07/22 00:41:25;;;;;;;4.03;3.63;;;;;;;30.99;41.49;96978.03;5072887;28;20024;-26
2022/07/22 00:44:06;;;;;;;4.20;3.63;;;;;;;30.95;41.89;96983.22;5076550;28;20077;-26
2022/07/22 00:46:33;;;;;;;4.35;3.35;;;;;;;30.98;41.74;96976.53;5076620;28;20104;-27
2022/07/22 00:48:59;;;;;;;4.07;3.67;;;;;;;30.93;41.83;96977.41;5076609;28;20020;-26
2022/07/22 00:51:27;;;;;;;5.38;4.13;;;;;;;30.90;41.52;96972.94;5076499;28;20021;-26
2022/07/22 00:53:54;;;;;;;3.83;3.50;;;;;;;30.99;41.86;96972.44;5076487;28;20054;-26
2022/07/22 00:56:20;;;;;;;4.05;3.75;;;;;;;30.94;41.62;96969.78;5076691;28;20032;-26
2022/07/22 00:58:48;;;;;;;4.20;3.80;;;;;;;31.02;41.23;96974.13;5076410;28;20012;-26
2022/07/22 01:01:14;;;;;;;4.28;3.50;;;;;;;30.97;41.83;96972.22;5076921;28;20067;-26
2022/07/22 01:03:40;;;;;;;4.60;4.20;;;;;;;30.98;41.58;96976.53;5076435;28;20020;-26
2022/07/22 01:06:05;;;;;;;3.83;3.53;;;;;;;31.01;41.85;96974.69;5076298;28;20100;-27
2022/07/22 01:08:33;;;;;;;4.45;3.70;;;;;;;30.99;41.93;96975.22;5075927;28;20032;-26
2022/07/22 01:11:13;;;;;;;3.65;3.35;;;;;;;30.89;41.72;96973.50;5076230;28;20123;-26
2022/07/22 01:13:40;;;;;;;4.38;3.85;;;;;;;30.95;41.96;96972.03;5076231;28;20020;-27
2022/07/22 01:16:08;;;;;;;4.32;3.95;;;;;;;31.00;41.51;96967.59;5076197;28;20035;-26
2022/07/22 01:18:34;;;;;;;4.05;3.75;;;;;;;31.00;41.56;96970.38;5076126;28;20027;-26
2022/07/22 01:21:00;;;;;;;3.78;3.47;;;;;;;31.06;41.12;96960.50;5076118;28;20028;-26
2022/07/22 01:23:26;;;;;;;4.32;3.90;;;;;;;31.01;41.34;96967.03;5075915;28;20025;-26
2022/07/22 01:25:51;;;;;;;4.30;3.97;;;;;;;30.96;41.73;96967.94;5076217;28;20021;-26
2022/07/22 01:28:17;;;;;;;4.47;3.60;;;;;;;30.93;42.02;96960.63;5075695;28;20102;-26
2022/07/22 01:30:42;;;;;;;3.97;3.58;;;;;;;30.96;42.24;96972.78;5076026;28;20114;-26
2022/07/22 01:33:08;;;;;;;4.00;3.70;;;;;;;31.01;41.69;96955.81;5075876;28;20029;-26
2022/07/22 01:35:33;;;;;;;4.40;3.90;;;;;;;31.07;41.39;96964.06;5075690;28;20033;-26
2022/07/22 01:37:59;;;;;;;4.50;3.92;;;;;;;31.02;41.78;96968.53;5075950;28;20021;-27
2022/07/22 01:40:24;;;;;;;3.90;3.53;;;;;;;30.98;42.13;96970.94;5075578;28;20025;-27
2022/07/22 01:42:50;;;;;;;5.05;3.83;;;;;;;30.97;42.03;96961.03;5075618;28;20036;-26
2022/07/22 01:45:15;;;;;;;4.63;3.78;;;;;;;31.03;41.30;96966.47;5075557;28;20138;-26
2022/07/22 01:47:41;;;;;;;4.95;3.55;;;;;;;31.04;41.81;96965.91;5075651;28;20055;-28
2022/07/22 01:50:09;;;;;;;3.92;3.63;;;;;;;31.07;41.20;96964.06;5075390;28;20035;-26
2022/07/22 01:52:34;;;;;;;5.22;3.63;;;;;;;31.06;41.60;96960.50;5074836;28;20036;-26
2022/07/22 01:55:00;;;;;;;4.18;3.78;;;;;;;31.04;41.68;96963.09;5075370;28;20374;-27
2022/07/22 01:57:26;;;;;;;4.57;3.33;;;;;;;30.97;41.93;96955.41;5075386;28;20112;-26
2022/07/22 01:59:51;;;;;;;3.85;3.50;;;;;;;31.08;41.63;96962.75;5075204;28;20063;-26
2022/07/22 02:02:17;;;;;;;3.92;3.63;;;;;;;30.94;41.33;96964.16;5075391;28;20051;-26
2022/07/22 02:04:42;;;;;;;4.20;3.80;;;;;;;31.01;41.85;96958.63;5075045;28;20475;-26
2022/07/22 02:07:08;;;;;;;4.30;3.90;;;;;;;30.99;41.88;96952.06;5073723;28;20033;-26
2022/07/22 02:09:33;;;;;;;3.90;3.50;;;;;;;31.07;41.03;96955.66;5074996;28;20052;-26
2022/07/22 02:11:59;;;;;;;4.20;3.80;;;;;;;31.07;41.46;96961.25;5074919;28;20021;-26
2022/07/22 02:14:24;;;;;;;4.60;4.03;;;;;;;31.04;41.05;96959.56;5075033;28;20038;-26
2022/07/22 02:16:50;;;;;;;5.72;3.67;;;;;;;31.00;41.37;96954.31;5074884;28;20025;-26
2022/07/22 02:19:15;;;;;;;4.28;3.88;;;;;;;30.97;41.11;96952.63;5074813;28;20099;-27
2022/07/22 02:21:41;;;;;;;4.47;3.70;;;;;;;31.03;40.96;96950.41;5074795;28;20107;-26
2022/07/22 02:24:06;;;;;;;3.78;3.47;;;;;;;31.08;41.04;96949.50;5074785;28;20027;-27
2022/07/22 02:26:32;;;;;;;3.90;3.47;;;;;;;31.03;40.96;96949.69;5074555;28;20046;-26
2022/07/22 02:28:57;;;;;;;4.57;4.00;;;;;;;31.04;40.90;96954.69;5074732;28;20025;-26
2022/07/22 02:31:23;;;;;;;4.15;3.75;;;;;;;30.95;40.98;96949.63;5074683;28;20028;-26
2022/07/22 02:33:49;;;;;;;5.15;3.50;;;;;;;31.01;41.14;96952.28;5074742;28;20047;-26
2022/07/22 02:36:14;;;;;;;4.05;3.65;;;;;;;31.03;41.10;96944.81;5074783;28;20024;-27
2022/07/22 02:38:40;;;;;;;4.15;3.75;;;;;;;31.04;41.22;96951.91;5074656;28;20021;-26
2022/07/22 02:41:05;;;;;;;3.85;3.55;;;;;;;31.06;40.87;96954.16;5074591;28;20103;-26
2022/07/22 02:43:31;;;;;;;4.45;3.70;;;;;;;31.11;40.59;96949.75;5074546;28;20470;-26
2022/07/22 02:45:56;;;;;;;3.95;3.65;;;;;;;31.02;40.78;96954.53;5074485;28;20112;-27
2022/07/22 02:48:22;;;;;;;3.80;3.40;;;;;;;30.99;40.75;96947.22;5074353;28;20103;-26
2022/07/22 02:50:48;;;;;;;3.92;3.63;;;;;;;30.92;41.36;96947.91;5074012;28;20523;-26
2022/07/22 02:53:14;;;;;;;4.18;3.78;;;;;;;30.93;41.23;96952.22;5074213;28;20038;-26
2022/07/22 02:55:40;;;;;;;3.90;3.47;;;;;;;31.03;40.71;96955.28;5074271;28;20030;-27
2022/07/22 02:58:07;;;;;;;4.05;3.65;;;;;;;31.03;40.56;96952.47;5073984;28;20111;-26
2022/07/22 03:00:33;;;;;;;3.90;3.60;;;;;;;31.02;40.68;96948.94;5074089;28;20107;-26
2022/07/22 03:02:58;;;;;;;4.82;3.78;;;;;;;31.01;41.15;96949.47;5074016;28;20092;-26
2022/07/22 03:05:24;;;;;;;3.75;3.38;;;;;;;30.99;40.65;96950.03;5073220;28;20017;-28
2022/07/22 03:07:49;;;;;;;3.97;3.58;;;;;;;31.00;41.10;96945.19;5074127;28;20032;-26
2022/07/22 03:10:15;;;;;;;4.25;3.83;;;;;;;31.01;40.67;96953.03;5073749;28;20047;-28
2022/07/22 03:12:40;;;;;;;4.10;3.72;;;;;;;30.99;40.97;96949.28;5073876;28;20028;-27
2022/07/22 03:15:06;;;;;;;3.97;3.60;;;;;;;30.98;40.77;96947.78;5073739;28;20099;-26
2022/07/22 03:17:36;;;;;;;4.60;3.92;;;;;;;31.00;40.44;96940.31;5073787;28;20021;-26
2022/07/22 03:20:11;;;;;;;3.78;3.47;;;;;;;30.98;40.69;96948.53;5073845;28;20383;-26
2022/07/22 03:22:37;;;;;;;4.28;3.88;;;;;;;31.03;40.50;96947.59;5073718;28;20025;-26
2022/07/22 03:25:03;;;;;;;4.30;3.85;;;;;;;30.98;40.80;96942.91;5073737;28;20028;-26
2022/07/22 03:27:28;;;;;;;3.72;3.42;;;;;;;30.96;40.68;96939.91;5073872;28;20156;-26
2022/07/22 03:29:54;;;;;;;4.03;3.50;;;;;;;30.97;40.83;96952.63;5073163;28;20070;-27
2022/07/22 03:32:20;;;;;;;5.82;3.95;;;;;;;30.98;40.19;96944.97;5073319;28;20025;-26
2022/07/22 03:34:46;;;;;;;4.80;3.65;;;;;;;30.94;40.51;96955.78;5073304;28;20040;-26
2022/07/22 03:37:12;;;;;;;4.15;3.72;;;;;;;30.95;40.65;96949.63;5073644;28;20390;-26
2022/07/22 03:39:37;;;;;;;3.70;3.40;;;;;;;30.93;40.59;96952.22;5073472;28;20032;-26
2022/07/22 03:42:03;;;;;;;3.90;3.60;;;;;;;30.94;40.06;96952.97;5073522;28;20024;-26
2022/07/22 03:44:29;;;;;;;4.07;3.67;;;;;;;30.94;40.26;96955.78;5073443;28;20421;-26
2022/07/22 03:46:54;;;;;;;4.40;3.55;;;;;;;30.95;40.23;96949.63;5073532;28;20020;-29
2022/07/22 03:49:20;;;;;;;3.92;3.50;;;;;;;30.92;40.15;96955.56;5073349;28;20038;-26
2022/07/22 03:51:45;;;;;;;3.80;3.50;;;;;;;30.92;40.15;96956.31;5073506;28;20475;-28
2022/07/22 03:54:11;;;;;;;3.83;3.42;;;;;;;30.92;40.35;96950.72;5073557;28;20103;-27
2022/07/22 03:56:36;;;;;;;4.10;3.70;;;;;;;30.93;40.45;96957.06;5071966;28;20497;-26
2022/07/22 03:59:02;;;;;;;4.22;3.80;;;;;;;30.90;39.95;96956.13;5073406;28;20020;-26
2022/07/22 04:01:28;;;;;;;4.35;3.95;;;;;;;30.91;39.97;96963.22;5073230;28;20031;-28
2022/07/22 04:03:53;;;;;;;5.20;3.88;;;;;;;30.89;39.88;96962.28;5073306;28;20031;-26
2022/07/22 04:06:19;;;;;;;4.43;4.03;;;;;;;30.89;39.91;96951.09;5072874;28;20024;-26
2022/07/22 04:08:45;;;;;;;3.72;3.42;;;;;;;30.91;40.10;96962.50;5072937;28;20032;-26
2022/07/22 04:11:10;;;;;;;4.43;3.63;;;;;;;30.91;40.04;96957.63;5073053;28;20028;-26
2022/07/22 04:13:36;;;;;;;4.45;3.65;;;;;;;30.88;39.80;96958.75;5071740;28;20052;-26
2022/07/22 04:16:02;;;;;;;4.13;3.70;;;;;;;30.86;39.85;96957.78;5073850;28;20035;-26
2022/07/22 04:18:30;;;;;;;4.93;3.55;;;;;;;30.89;40.08;96951.84;5077342;28;20470;-26
2022/07/22 04:20:56;;;;;;;4.10;3.67;;;;;;;30.84;39.89;96958.31;5077276;28;20435;-26
2022/07/22 04:23:22;;;;;;;5.13;3.92;;;;;;;30.85;39.62;96959.84;5077236;28;20024;-26
2022/07/22 04:25:47;;;;;;;4.30;3.80;;;;;;;30.80;40.13;96955.13;5077008;28;20031;-26
2022/07/22 04:28:13;;;;;;;4.13;3.72;;;;;;;30.80;39.68;96959.97;5076636;28;20074;-26
2022/07/22 04:30:38;;;;;;;3.97;3.60;;;;;;;30.83;39.62;96956.81;5077000;28;20036;-28
2022/07/22 04:33:04;;;;;;;5.13;3.90;;;;;;;30.85;39.97;96956.28;5076824;28;20077;-27
2022/07/22 04:35:30;;;;;;;4.97;4.00;;;;;;;30.83;39.64;96959.63;5076916;28;20020;-26
2022/07/22 04:37:55;;;;;;;5.80;3.85;;;;;;;30.82;39.85;96954.56;5076717;28;20099;-26
2022/07/22 04:40:21;;;;;;;4.47;3.88;;;;;;;30.79;39.82;96962.03;5076657;28;20099;-26
2022/07/22 04:42:46;;;;;;;5.68;4.22;;;;;;;30.80;39.45;96957.91;5076872;28;20032;-26
2022/07/22 04:45:12;;;;;;;7.10;4.63;;;;;;;30.79;40.08;96959.22;5076516;28;20028;-26
2022/07/22 04:47:37;;;;;;;4.45;3.83;;;;;;;30.77;39.86;96956.25;5076797;28;20539;-26
2022/07/22 04:50:03;;;;;;;6.57;3.92;;;;;;;30.80;39.45;96963.53;5076856;28;20471;-26
2022/07/22 04:52:29;;;;;;;5.32;4.30;;;;;;;30.80;39.52;96955.13;5078170;28;20051;-26
2022/07/22 04:54:54;;;;;;;6.30;3.80;;;;;;;30.76;39.61;96959.59;5083208;28;20469;-26
2022/07/22 04:57:20;;;;;;;6.15;4.05;;;;;;;30.78;39.63;96959.78;5094739;28;20081;-26
2022/07/22 04:59:45;;;;;;;5.80;3.92;;;;;;;30.70;39.26;96963.28;5079807;28;20066;-27
2022/07/22 05:02:11;;;;;;;5.85;4.10;;;;;;;30.74;39.33;96962.19;5074316;28;20141;-26
2022/07/22 05:04:36;;;;;;;4.13;3.70;;;;;;;30.76;39.23;96960.34;5074208;28;20071;-26
2022/07/22 05:07:02;;;;;;;5.03;4.05;;;;;;;30.80;38.57;96965.56;5074368;28;20024;-26
2022/07/22 05:09:28;;;;;;;4.28;3.80;;;;;;;30.78;38.60;96974.53;5074176;28;20502;-26
2022/07/22 05:11:54;;;;;;;6.10;4.20;;;;;;;30.71;39.12;96961.97;5088701;28;20093;-27
2022/07/22 05:14:20;;;;;;;7.00;4.40;;;;;;;30.74;38.87;96967.78;5094520;28;20077;-26
2022/07/22 05:16:45;;;;;;;4.95;3.85;;;;;;;30.77;38.74;96961.09;5094120;28;20062;-27
2022/07/22 05:19:11;;;;;;;4.45;4.03;;;;;;;30.74;38.36;96960.13;5093039;28;20055;-26
2022/07/22 05:21:36;;;;;;;6.65;4.07;;;;;;;30.72;38.31;96959.94;5094380;28;20511;-26
2022/07/22 05:24:03;;;;;;;4.68;4.20;;;;;;;30.72;38.73;96962.72;5094262;28;20035;-26
2022/07/22 05:26:31;;;;;;;5.28;4.03;;;;;;;30.70;38.61;96965.31;5093828;28;20401;-26
2022/07/22 05:28:56;;;;;;;5.25;4.00;;;;;;;30.66;38.42;96971.25;5093186;28;20169;-26
2022/07/22 05:31:22;;;;;;;6.05;4.20;;;;;;;30.72;38.03;96971.13;5092936;28;20537;-26
2022/07/22 05:33:47;;;;;;;5.30;4.40;;;;;;;30.70;37.92;96968.88;5093917;28;20046;-26
2022/07/22 05:36:13;;;;;;;4.75;4.20;;;;;;;30.68;38.08;96967.91;5094230;28;20173;-28
2022/07/22 05:38:38;;;;;;;5.80;4.35;;;;;;;30.68;38.59;96973.53;5094028;28;20137;-26
2022/07/22 05:41:04;;;;;;;5.45;3.90;;;;;;;30.65;38.63;96971.84;5093667;28;20549;-26
2022/07/22 05:43:29;;;;;;;4.97;4.30;;;;;;;30.66;38.00;96971.25;5094068;28;20024;-26
2022/07/22 05:45:55;;;;;;;6.43;4.10;;;;;;;30.65;38.36;96978.19;5093851;28;20069;-26
2022/07/22 05:48:20;;;;;;;4.95;4.00;;;;;;;30.62;38.33;96973.69;5079904;28;20028;-26
2022/07/22 05:50:46;;;;;;;6.15;3.92;;;;;;;30.65;38.42;96983.03;5073590;28;20118;-26
2022/07/22 05:53:11;;;;;;;5.72;4.15;;;;;;;30.64;38.79;96982.28;5073039;28;20110;-26
2022/07/22 05:55:37;;;;;;;6.75;4.00;;;;;;;30.63;38.53;96980.03;5073400;28;20035;-27
2022/07/22 05:58:02;;;;;;;8.18;3.85;;;;;;;30.61;38.97;96983.38;5073580;28;20039;-26
2022/07/22 06:00:28;;;;;;;5.05;4.15;;;;;;;30.64;38.96;96981.53;5073537;28;20028;-26
2022/07/22 06:02:53;;;;;;;4.88;4.07;;;;;;;30.67;39.28;96986.75;5073450;28;20039;-27
2022/07/22 06:05:20;;;;;;;9.32;4.30;;;;;;;30.60;39.48;96992.31;5073014;28;20040;-26
2022/07/22 06:07:45;;;;;;;5.22;4.30;;;;;;;30.63;39.93;96982.81;5073049;28;20535;-26
2022/07/22 06:10:11;;;;;;;5.32;4.20;;;;;;;30.61;40.30;96988.97;5073019;28;20091;-26
2022/07/22 06:12:36;;;;;;;5.93;4.20;;;;;;;30.63;39.72;96991.22;5073161;28;20058;-26
2022/07/22 06:15:03;;;;;;;4.57;3.90;;;;;;;30.63;39.74;96996.81;5073083;28;20024;-26
2022/07/22 06:17:28;;;;;;;5.47;3.70;;;;;;;30.66;39.91;96987.34;5072707;28;20024;-26
2022/07/22 06:19:54;;;;;;;4.80;3.80;;;;;;;30.66;39.72;96990.13;5071603;28;20424;-26
2022/07/22 06:22:19;;;;;;;7.55;4.10;;;;;;;30.64;40.36;96992.72;5072986;28;20021;-26
2022/07/22 06:24:45;;;;;;;6.63;3.92;;;;;;;30.62;40.46;96995.31;5073015;28;20082;-26
2022/07/22 06:27:11;;;;;;;4.63;4.20;;;;;;;30.62;40.31;96995.31;5072880;28;20398;-26
2022/07/22 06:29:36;;;;;;;4.35;3.65;;;;;;;30.66;40.52;96995.75;5072558;28;20035;-26
2022/07/22 06:32:02;;;;;;;4.78;3.88;;;;;;;30.61;40.38;96991.03;5072784;28;20036;-26
2022/07/22 06:34:29;;;;;;;4.82;3.97;;;;;;;30.64;40.49;96996.28;5072785;28;20085;-26
2022/07/22 06:36:54;;;;;;;4.78;3.78;;;;;;;30.67;40.58;96997.22;5072508;28;20470;-26
2022/07/22 06:39:20;;;;;;;5.35;3.90;;;;;;;30.68;39.99;96999.47;5071726;28;20028;-27
2022/07/22 06:41:45;;;;;;;5.82;3.88;;;;;;;30.64;40.68;96992.72;5071944;28;20078;-26
2022/07/22 06:44:11;;;;;;;5.65;3.75;;;;;;;30.66;40.45;97001.34;5072361;28;20513;-26
2022/07/22 06:46:36;;;;;;;4.88;3.60;;;;;;;30.70;39.94;97007.31;5072546;28;20032;-26
2022/07/22 06:49:02;;;;;;;4.68;4.05;;;;;;;30.69;40.79;97000.22;5086647;28;20103;-26
2022/07/22 06:51:27;;;;;;;5.22;3.88;;;;;;;30.66;40.30;97006.94;5082110;28;20028;-28
2022/07/22 06:53:53;;;;;;;5.80;4.05;;;;;;;30.63;40.24;97008.78;5077047;28;20051;-26
2022/07/22 06:56:18;;;;;;;6.35;3.95;;;;;;;30.66;40.23;97002.06;5073608;28;20017;-26
2022/07/22 06:58:44;;;;;;;4.15;3.72;;;;;;;30.66;40.06;97007.66;5091929;28;20395;-26
2022/07/22 07:01:09;;;;;;;5.43;3.80;;;;;;;30.66;40.24;97012.53;5092448;28;20051;-26
2022/07/22 07:03:35;;;;;;;5.75;4.13;;;;;;;30.67;40.47;97009.16;5091925;28;20081;-26
2022/07/22 07:06:00;;;;;;;3.97;3.55;;;;;;;30.69;40.22;97005.81;5091391;28;20123;-26
2022/07/22 07:08:26;;;;;;;7.00;3.60;;;;;;;30.68;39.91;97007.13;5091981;28;20044;-27
2022/07/22 07:10:51;;;;;;;4.13;3.72;;;;;;;30.70;39.92;97015.72;5092343;28;20385;-26
2022/07/22 07:13:17;;;;;;;4.40;3.90;;;;;;;30.67;40.42;97008.41;5092271;28;20085;-26
2022/07/22 07:15:42;;;;;;;5.18;3.58;;;;;;;30.66;39.87;97018.13;5075059;28;20417;-26
2022/07/22 07:21:30;;;;;;;4.57;3.83;;;;;;;30.66;40.17;97018.13;5071471;28;20059;-26
2022/07/22 07:23:55;;;;;;;4.78;3.28;;;;;;;30.68;40.04;97013.47;5071725;28;20471;-26
2022/07/22 07:26:21;;;;;;;6.95;4.00;;;;;;;30.58;39.70;97014.50;5081580;28;20028;-26
2022/07/22 07:28:47;;;;;;;4.05;3.53;;;;;;;30.60;39.98;97006.31;5093844;28;20023;-26
2022/07/22 07:31:12;;;;;;;4.63;3.85;;;;;;;30.60;39.56;97009.88;5093824;28;20040;-26
2022/07/22 07:33:37;;;;;;;5.88;4.25;;;;;;;30.60;39.78;97012.66;5093451;28;20020;-26
2022/07/22 07:36:03;;;;;;;5.78;4.10;;;;;;;30.67;39.36;97008.41;5094142;28;20210;-26
2022/07/22 07:38:29;;;;;;;7.03;4.07;;;;;;;30.61;38.41;97010.63;5093720;28;20466;-28
2022/07/22 07:40:55;;;;;;;6.45;4.13;;;;;;;30.66;38.41;97012.53;5093707;28;20469;-26
2022/07/22 07:43:21;;;;;;;5.30;4.05;;;;;;;30.62;38.77;97012.13;5093712;28;20063;-27
2022/07/22 07:45:46;;;;;;;6.50;4.22;;;;;;;30.66;39.02;97020.94;5093840;28;20020;-26
2022/07/22 07:48:12;;;;;;;4.72;4.10;;;;;;;30.63;38.54;97008.78;5093375;28;20023;-26
2022/07/22 07:50:37;;;;;;;5.93;3.70;;;;;;;30.66;38.63;97007.66;5093245;28;20028;-26
2022/07/22 07:53:03;;;;;;;6.20;4.07;;;;;;;30.52;37.21;97013.88;5093564;28;20024;-27
2022/07/22 07:55:28;;;;;;;4.32;3.92;;;;;;;30.64;38.70;97009.53;5093448;28;20028;-26
2022/07/22 07:57:54;;;;;;;6.93;4.13;;;;;;;30.66;37.49;97016.06;5093404;28;20458;-27
2022/07/22 08:00:23;;;;;;;7.38;3.92;;;;;;;30.49;33.97;97012.16;5093637;28;20028;-26
2022/07/22 08:02:49;;;;;;;5.30;4.00;;;;;;;30.57;35.70;97010.94;5093344;28;20024;-26
2022/07/22 08:05:15;;;;;;;5.68;3.90;;;;;;;30.42;35.69;97016.38;5093592;28;20038;-26
2022/07/22 08:07:41;;;;;;;6.28;3.70;;;;;;;30.36;35.47;97019.34;5093201;28;20023;-26
2022/07/22 08:10:07;;;;;;;4.60;3.63;;;;;;;30.51;34.83;97015.19;5091921;28;20043;-26
2022/07/22 08:12:34;;;;;;;4.50;3.42;;;;;;;30.55;35.86;97007.94;5092157;28;20473;-26
2022/07/22 08:15:00;;;;;;;5.90;3.80;;;;;;;30.55;31.87;97007.19;5091815;28;20123;-26
2022/07/22 08:17:25;;;;;;;4.95;3.63;;;;;;;30.08;31.92;97010.84;5091871;28;20107;-26
2022/07/22 08:19:51;;;;;;;6.10;3.55;;;;;;;30.03;32.07;97013.78;5093086;28;20040;-28
2022/07/22 08:22:16;;;;;;;4.47;3.45;;;;;;;30.21;32.13;97026.81;5092064;28;20028;-28
2022/07/22 08:24:42;;;;;;;4.13;3.28;;;;;;;30.43;32.78;97012.28;5093239;28;20028;-29
2022/07/22 08:27:07;;;;;;;5.85;3.47;;;;;;;30.40;32.57;97023.84;5092444;28;20099;-29
2022/07/22 08:29:32;;;;;;;6.82;3.70;;;;;;;30.27;32.17;97017.03;5091701;28;20021;-29
2022/07/22 08:31:58;;;;;;;6.07;3.58;;;;;;;30.36;32.84;97024.94;5092244;28;20478;-28
2022/07/22 08:34:24;;;;;;;5.55;3.80;;;;;;;30.47;32.56;97023.91;5092637;28;20032;-29
2022/07/22 08:36:49;;;;;;;4.65;3.55;;;;;;;30.41;33.33;97019.75;5092939;28;20024;-28
2022/07/22 08:39:15;;;;;;;4.55;3.35;;;;;;;30.43;32.54;97019.94;5093221;28;20031;-28
2022/07/22 08:41:40;;;;;;;5.45;3.22;;;;;;;30.31;33.49;97028.59;5093070;28;20027;-28
2022/07/22 08:44:08;;;;;;;5.68;3.50;;;;;;;30.42;33.45;97018.44;5093025;28;20032;-29
2022/07/22 08:46:34;;;;;;;4.38;3.60;;;;;;;30.39;34.02;97034.28;5092928;28;20039;-29
2022/07/22 08:49:01;;;;;;;6.25;3.70;;;;;;;30.42;34.15;97024.03;5092886;28;20028;-29
2022/07/22 08:51:27;;;;;;;4.20;3.63;;;;;;;30.40;33.38;97023.84;5092956;28;20024;-29
2022/07/22 08:53:53;;;;;;;3.67;3.25;;;;;;;30.41;32.02;97031.69;5092036;28;20023;-28
2022/07/22 08:56:19;;;;;;;3.78;3.13;;;;;;;30.22;33.36;97037.47;5092889;28;20111;-29
2022/07/22 08:58:44;;;;;;;4.00;2.90;;;;;;;30.29;34.06;97044.47;5092884;28;20051;-29
2022/07/22 09:01:12;;;;;;;3.45;3.15;;;;;;;30.14;33.30;97041.50;5092812;28;20382;-28
2022/07/22 09:03:47;;;;;;;4.47;3.03;;;;;;;29.92;33.17;97043.47;5094474;28;20494;-29
2022/07/22 09:06:12;;;;;;;5.45;3.60;;;;;;;30.01;33.59;97042.28;5096553;28;20488;-29
2022/07/22 09:08:57;;;;;;;5.38;3.28;;;;;;;30.22;33.40;97048.66;5096166;28;20028;-29
2022/07/22 09:11:25;;;;;;;3.50;2.70;;;;;;;30.24;33.28;97040.50;5096399;28;20115;-29
2022/07/22 09:13:52;;;;;;;4.22;3.67;;;;;;;30.30;33.74;97043.13;5095062;28;20458;-29
2022/07/22 09:16:47;;;;;;;3.75;3.42;;;;;;;30.36;33.16;97040.97;5096340;28;20470;-30
2022/07/22 09:19:14;;;;;;;3.75;3.20;;;;;;;30.35;33.22;97040.22;5096457;28;20024;-29
2022/07/22 09:21:42;;;;;;;3.70;3.40;;;;;;;30.37;33.43;97036.88;5096136;28;20032;-28
2022/07/22 09:24:08;;;;;;;5.60;3.25;;;;;;;30.34;33.36;97033.13;5094345;28;20488;-28
2022/07/22 09:26:38;;;;;;;3.75;2.92;;;;;;;30.40;33.28;97041.38;5092322;28;20035;-29
2022/07/22 09:29:05;;;;;;;4.15;3.33;;;;;;;30.40;33.31;97035.78;5094865;28;20028;-30
2022/07/22 09:31:34;;;;;;;4.55;3.00;;;;;;;30.19;32.64;97026.63;5096062;28;20032;-29
2022/07/22 09:34:01;;;;;;;3.75;3.35;;;;;;;30.35;33.47;97031.81;5096165;28;20070;-28
2022/07/22 09:36:27;;;;;;;4.32;3.13;;;;;;;30.36;33.46;97035.38;5095969;28;20413;-29
2022/07/22 09:38:53;;;;;;;3.40;2.70;;;;;;;30.33;32.88;97023.22;5096070;28;20031;-28
2022/07/22 09:41:19;;;;;;;4.10;3.28;;;;;;;30.40;32.97;97023.84;5095747;28;20028;-28
2022/07/22 09:43:45;;;;;;;3.55;3.25;;;;;;;30.35;32.74;97014.28;5095899;28;20027;-29
2022/07/22 09:46:14;;;;;;;3.13;2.55;;;;;;;30.43;32.93;97022.72;5095668;28;20028;-29
2022/07/22 09:48:40;;;;;;;5.07;3.30;;;;;;;30.30;33.07;97015.91;5095675;28;20043;-29
2022/07/22 09:51:06;;;;;;;6.07;3.70;;;;;;;30.42;33.24;97021.22;5095719;28;20462;-28
2022/07/22 09:53:33;;;;;;;3.78;3.40;;;;;;;30.41;32.71;97014.16;5095561;28;20039;-28
2022/07/22 09:56:00;;;;;;;4.65;3.50;;;;;;;30.42;32.91;97013.59;5095874;28;20394;-29
2022/07/22 09:58:26;;;;;;;3.63;3.17;;;;;;;30.41;32.58;97008.56;5095615;28;20020;-29
2022/07/22 10:00:54;;;;;;;5.75;3.40;;;;;;;30.40;32.64;97010.59;5095452;28;20074;-28
2022/07/22 10:03:29;;;;;;;4.70;3.83;;;;;;;30.40;32.65;97004.25;5095433;28;20024;-28
2022/07/22 10:05:57;;;;;;;5.22;3.95;;;;;;;30.29;32.90;97000.41;5095620;28;20465;-29
2022/07/22 10:08:24;;;;;;;3.65;3.35;;;;;;;30.34;32.57;97004.38;5095337;28;20113;-28
2022/07/22 10:10:53;;;;;;;4.03;3.00;;;;;;;30.30;32.87;97001.91;5095615;28;20107;-28
2022/07/22 10:13:18;;;;;;;5.03;3.58;;;;;;;30.36;32.66;96999.00;5095327;28;20465;-28
2022/07/22 10:15:46;;;;;;;5.03;3.47;;;;;;;30.37;32.41;96997.69;5095088;28;20031;-29
2022/07/22 10:18:17;;;;;;;3.97;3.58;;;;;;;30.40;32.31;96993.06;5095169;28;20020;-29
2022/07/22 10:20:43;;;;;;;3.50;3.20;;;;;;;30.33;32.45;97003.63;5095336;28;20020;-28
2022/07/22 10:23:11;;;;;;;4.90;3.65;;;;;;;30.12;32.98;96996.53;5095042;28;20024;-29
2022/07/22 10:25:58;;;;;;;4.43;3.55;;;;;;;30.25;32.63;96988.84;5095018;28;20031;-29
2022/07/22 10:28:34;;;;;;;4.03;3.65;;;;;;;30.31;32.35;96983.84;5094796;28;20051;-29
2022/07/22 10:31:17;;;;;;;4.03;3.63;;;;;;;30.27;32.81;96991.84;5095094;28;20070;-29
2022/07/22 10:33:48;;;;;;;4.70;3.83;;;;;;;30.40;32.13;96990.28;5095146;28;20016;-29
2022/07/22 10:36:14;;;;;;;5.03;3.55;;;;;;;30.31;31.76;96988.69;5094805;28;20020;-28
2022/07/22 10:39:01;;;;;;;5.53;4.05;;;;;;;30.25;32.61;96985.28;5094993;28;20024;-29
2022/07/22 10:41:42;;;;;;;4.00;3.70;;;;;;;30.33;31.96;96984.03;5094665;28;20450;-28
2022/07/22 10:44:08;;;;;;;4.40;4.00;;;;;;;30.31;32.30;96978.25;5094925;28;20020;-29
2022/07/22 10:46:49;;;;;;;5.38;3.47;;;;;;;30.18;31.48;96977.56;5094563;28;20032;-28
2022/07/22 10:49:16;;;;;;;5.50;4.32;;;;;;;30.15;31.93;96982.22;5094624;28;20031;-30
2022/07/22 10:52:16;;;;;;;6.72;4.50;;;;;;;30.13;32.19;96979.22;5094485;28;20024;-36
2022/07/22 10:55:16;;;;;;;4.97;3.83;;;;;;;30.21;31.57;96982.81;5094576;28;20481;-34
2022/07/22 10:57:41;;;;;;;4.60;3.78;;;;;;;30.13;32.24;96979.22;5093298;28;20410;-34
2022/07/22 11:00:07;;;;;;;7.13;4.03;;;;;;;30.11;31.97;96987.38;5094736;28;20063;-35
2022/07/22 11:02:35;;;;;;;4.15;3.75;;;;;;;30.07;32.19;96984.16;5094659;28;20024;-34
2022/07/22 11:05:01;;;;;;;4.10;3.75;;;;;;;30.30;32.14;96976.72;5094516;28;20020;-35
2022/07/22 11:07:29;;;;;;;3.88;3.47;;;;;;;30.24;31.87;96983.78;5094760;28;20077;-34
2022/07/22 11:10:08;;;;;;;4.18;3.78;;;;;;;30.12;31.82;96974.91;5094133;28;20102;-36
2022/07/22 11:12:34;;;;;;;4.00;3.60;;;;;;;30.18;31.91;96983.16;5094442;28;20096;-35
2022/07/22 11:15:03;;;;;;;4.57;3.28;;;;;;;30.16;31.25;96972.53;5094235;28;20028;-35
2022/07/22 11:17:32;;;;;;;5.50;3.70;;;;;;;30.21;31.36;96971.63;5093930;28;20164;-35
2022/07/22 11:19:58;;;;;;;3.70;3.40;;;;;;;30.21;31.19;96971.63;5094088;28;20031;-34
2022/07/22 11:22:23;;;;;;;6.45;3.95;;;;;;;30.15;31.56;96971.03;5094465;28;20032;-35
2022/07/22 11:24:49;;;;;;;5.88;3.72;;;;;;;30.20;31.52;96967.31;5094181;28;20032;-34
2022/07/22 11:27:17;;;;;;;3.83;3.53;;;;;;;30.16;31.79;96974.56;5093577;28;20481;-34
2022/07/22 11:29:48;;;;;;;4.32;3.60;;;;;;;30.16;31.28;96963.38;5094370;28;20020;-34
2022/07/22 11:32:14;;;;;;;3.95;3.50;;;;;;;30.21;31.29;96963.22;5093906;28;20039;-34
2022/07/22 11:34:45;;;;;;;4.35;3.45;;;;;;;30.22;30.80;96970.34;5094421;28;20020;-34